Time;durP1;ratioP1;P1;durP2;ratioP2;P2;SDS_P1;SDS_P2;PMS_P1;PMS_P2;Temp;Humidity;BMP_temperature;BMP_pressure;BME280_temperature;BME280_humidity;BME280_pressure;Samples;Min_cycle;Max_cycle;Signal;HPM_P1;HPM_P2
2021/01/10 00:00:19;;;;;;;16.17;10.27;;;;;;;-2.42;87.17;97261.22;5115409;27;20176;-68
2021/01/10 00:02:46;;;;;;;15.07;10.07;;;;;;;-2.48;87.56;97265.13;5109358;28;20188;-68
2021/01/10 00:05:15;;;;;;;16.70;10.43;;;;;;;-2.48;87.22;97262.56;5106388;27;20186;-68
2021/01/10 00:07:42;;;;;;;15.37;10.00;;;;;;;-2.58;87.32;97259.19;5102240;28;20200;-68
2021/01/10 00:10:11;;;;;;;17.97;10.80;;;;;;;-2.54;87.79;97255.41;5113720;27;20205;-68
2021/01/10 00:12:39;;;;;;;15.93;10.17;;;;;;;-2.48;86.82;97254.06;5106786;28;20188;-67
2021/01/10 00:15:12;;;;;;;14.70;10.50;;;;;;;-2.55;87.12;97251.22;5105241;27;20183;-68
2021/01/10 00:17:49;;;;;;;17.13;11.70;;;;;;;-2.55;87.29;97248.66;5121201;27;20182;-68
2021/01/10 00:20:17;;;;;;;17.97;11.17;;;;;;;-2.62;87.75;97250.16;5101233;27;20179;-68
2021/01/10 00:22:43;;;;;;;17.73;11.97;;;;;;;-2.66;88.50;97262.41;5143000;27;20172;-68
2021/01/10 00:25:11;;;;;;;16.80;11.43;;;;;;;-2.81;88.54;97245.78;5132387;27;20239;-68
2021/01/10 00:27:37;;;;;;;19.97;11.07;;;;;;;-2.75;88.47;97252.94;5111147;27;20202;-68
2021/01/10 00:30:14;;;;;;;15.10;10.60;;;;;;;-2.73;88.50;97248.47;5147096;27;20201;-69
2021/01/10 00:32:46;;;;;;;16.23;10.40;;;;;;;-2.69;87.94;97254.19;5127729;27;20226;-68
2021/01/10 00:35:12;;;;;;;15.03;9.93;;;;;;;-2.59;87.40;97253.25;5113157;27;20180;-68
2021/01/10 00:37:37;;;;;;;16.13;10.60;;;;;;;-2.64;87.48;97255.41;5115392;27;20672;-68
2021/01/10 00:40:03;;;;;;;16.00;10.83;;;;;;;-2.64;87.65;97263.09;5135897;27;20548;-69
2021/01/10 00:42:29;;;;;;;17.30;10.57;;;;;;;-2.70;87.91;97255.94;5131310;27;20252;-68
2021/01/10 00:44:55;;;;;;;16.03;11.07;;;;;;;-2.60;87.82;97266.19;5114996;27;20184;-68
2021/01/10 00:47:23;;;;;;;17.83;11.87;;;;;;;-2.57;88.31;97265.94;5105325;28;20657;-68
2021/01/10 00:49:48;;;;;;;17.27;11.00;;;;;;;-2.43;87.55;97262.97;5100492;28;20180;-68
2021/01/10 00:52:14;;;;;;;16.73;10.93;;;;;;;-2.43;87.31;97272.44;5146705;27;20688;-68
2021/01/10 00:54:40;;;;;;;14.53;10.20;;;;;;;-2.26;87.17;97270.00;5139824;27;20176;-68
2021/01/10 00:57:06;;;;;;;16.60;10.90;;;;;;;-2.41;87.41;97271.38;5143512;27;20184;-68
2021/01/10 00:59:31;;;;;;;16.30;10.60;;;;;;;-2.18;86.95;97264.22;5132885;27;20202;-68
2021/01/10 01:01:57;;;;;;;16.10;10.50;;;;;;;-2.07;85.39;97266.63;5142573;27;20641;-68
2021/01/10 01:04:23;;;;;;;15.87;10.50;;;;;;;-1.92;85.41;97269.59;5118578;27;20187;-68
2021/01/10 01:06:49;;;;;;;18.77;10.97;;;;;;;-1.91;84.98;97266.88;5151264;27;20198;-67
2021/01/10 01:09:15;;;;;;;17.00;10.87;;;;;;;-2.10;85.79;97272.84;5137695;27;20535;-67
2021/01/10 01:11:40;;;;;;;18.30;11.70;;;;;;;-1.99;85.86;97269.31;5136897;27;20179;-67
2021/01/10 01:14:10;;;;;;;17.07;10.63;;;;;;;-1.93;85.70;97273.09;5121817;27;20171;-67
2021/01/10 01:16:39;;;;;;;15.60;10.73;;;;;;;-2.01;85.67;97276.38;5100512;27;20190;-67
2021/01/10 01:19:06;;;;;;;16.70;10.93;;;;;;;-2.00;85.80;97282.28;5150846;27;20241;-68
2021/01/10 01:21:31;;;;;;;17.40;11.33;;;;;;;-2.11;85.68;97276.34;5134785;27;20626;-67
2021/01/10 01:23:56;;;;;;;18.33;11.17;;;;;;;-2.10;85.40;97285.69;5139894;27;20239;-67
2021/01/10 01:26:24;;;;;;;17.20;11.37;;;;;;;-2.25;85.62;97279.34;5150652;27;20217;-67
2021/01/10 01:28:50;;;;;;;16.03;11.17;;;;;;;-2.38;86.35;97286.47;5122472;27;20599;-67
2021/01/10 01:31:26;;;;;;;15.63;10.50;;;;;;;-2.63;87.29;97281.88;5148745;27;20182;-67
2021/01/10 01:33:53;;;;;;;15.57;9.73;;;;;;;-2.68;87.26;97284.84;5126941;27;20179;-67
2021/01/10 01:36:24;;;;;;;16.77;10.70;;;;;;;-2.53;86.77;97283.50;5146163;27;20192;-67
2021/01/10 01:38:53;;;;;;;14.40;9.67;;;;;;;-2.38;86.48;97294.19;5129778;27;20183;-67
2021/01/10 01:41:20;;;;;;;15.70;10.30;;;;;;;-2.41;86.57;97289.31;5127224;27;20227;-67
2021/01/10 01:43:45;;;;;;;13.27;9.10;;;;;;;-2.49;85.93;97298.63;5133877;27;20647;-67
2021/01/10 01:46:14;;;;;;;13.10;9.43;;;;;;;-2.60;86.20;97296.97;5099563;27;20179;-67
2021/01/10 01:48:42;;;;;;;13.40;9.67;;;;;;;-2.62;86.13;97297.09;5122654;27;20267;-67
2021/01/10 01:51:08;;;;;;;15.20;10.07;;;;;;;-2.75;85.84;97299.13;5130590;27;20213;-67
2021/01/10 01:53:34;;;;;;;13.73;9.13;;;;;;;-2.54;85.50;97306.72;5133373;27;20411;-67
2021/01/10 01:55:59;;;;;;;14.07;9.20;;;;;;;-2.65;85.96;97309.41;5140687;27;20187;-67
2021/01/10 01:58:27;;;;;;;15.87;10.40;;;;;;;-2.68;85.70;97307.91;5101811;27;20761;-67
2021/01/10 02:00:53;;;;;;;14.23;9.70;;;;;;;-2.72;86.35;97311.66;5111666;27;20646;-68
2021/01/10 02:03:28;;;;;;;14.57;9.67;;;;;;;-2.94;87.18;97317.00;5136095;27;20558;-68
2021/01/10 02:05:57;;;;;;;13.17;8.90;;;;;;;-2.79;87.15;97317.47;5098957;27;20183;-68
2021/01/10 02:08:27;;;;;;;12.80;9.07;;;;;;;-2.76;86.04;97310.31;5123738;27;20390;-67
2021/01/10 02:10:58;;;;;;;12.77;9.13;;;;;;;-2.82;86.88;97305.69;5109289;27;20187;-67
2021/01/10 02:13:24;;;;;;;12.60;8.87;;;;;;;-2.81;86.54;97306.53;5147238;27;20247;-67
2021/01/10 02:15:52;;;;;;;13.03;9.53;;;;;;;-3.01;87.35;97301.31;5120036;27;20175;-66
2021/01/10 02:18:19;;;;;;;13.80;9.30;;;;;;;-3.08;88.41;97294.28;5111825;27;20188;-67
2021/01/10 02:20:45;;;;;;;14.50;9.37;;;;;;;-3.08;88.18;97284.84;5119625;27;20194;-66
2021/01/10 02:23:22;;;;;;;14.13;9.13;;;;;;;-3.16;88.46;97291.53;5083562;27;20191;-67
2021/01/10 02:25:49;;;;;;;12.83;8.93;;;;;;;-3.06;87.90;97289.81;5141080;27;20531;-67
2021/01/10 02:28:22;;;;;;;12.20;8.70;;;;;;;-3.04;87.67;97290.50;5121263;27;20195;-67
2021/01/10 02:30:48;;;;;;;14.20;9.30;;;;;;;-3.06;88.68;97293.19;5135550;27;20170;-68
2021/01/10 02:33:32;;;;;;;11.67;8.97;;;;;;;-3.13;88.58;97296.44;5122581;27;20222;-69
2021/01/10 02:36:03;;;;;;;12.00;8.90;;;;;;;-3.17;88.77;97292.47;5136249;27;20231;-69
2021/01/10 02:38:33;;;;;;;12.97;8.67;;;;;;;-3.10;89.21;97293.59;5137064;27;20172;-69
2021/01/10 02:41:15;;;;;;;12.07;8.60;;;;;;;-3.12;88.44;97291.16;5145777;27;20234;-68
2021/01/10 02:43:48;;;;;;;12.67;8.73;;;;;;;-3.11;88.22;97287.66;5103052;27;20176;-68
2021/01/10 02:46:14;;;;;;;15.40;9.50;;;;;;;-3.09;88.70;97290.09;5144897;27;20168;-69
2021/01/10 02:48:39;;;;;;;12.03;8.63;;;;;;;-3.12;88.83;97282.69;5112003;27;20657;-69
2021/01/10 02:51:05;;;;;;;13.30;8.90;;;;;;;-3.19;88.23;97279.81;5130988;27;20546;-70
2021/01/10 02:53:30;;;;;;;15.37;9.10;;;;;;;-3.27;88.58;97282.19;5140278;27;20189;-68
2021/01/10 02:55:55;;;;;;;14.47;9.80;;;;;;;-3.36;89.32;97281.22;5118493;27;20209;-68
2021/01/10 02:58:26;;;;;;;12.87;8.87;;;;;;;-3.28;89.00;97285.69;5143071;27;20172;-68
2021/01/10 03:00:55;;;;;;;13.67;9.23;;;;;;;-3.42;89.89;97275.78;5129463;27;20680;-68
2021/01/10 03:03:21;;;;;;;13.70;9.07;;;;;;;-3.37;89.85;97277.03;5151428;27;20179;-68
2021/01/10 03:05:47;;;;;;;13.93;8.77;;;;;;;-3.36;90.11;97273.53;5119463;27;20521;-68
2021/01/10 03:08:14;;;;;;;14.37;9.87;;;;;;;-3.37;90.12;97274.47;5127772;27;20668;-68
2021/01/10 03:10:40;;;;;;;13.67;9.13;;;;;;;-3.38;90.42;97270.28;5125396;27;20574;-66
2021/01/10 03:13:07;;;;;;;12.47;8.60;;;;;;;-3.59;90.63;97263.56;5130630;27;20191;-70
2021/01/10 03:15:34;;;;;;;13.43;9.30;;;;;;;-3.45;90.01;97268.34;5113367;27;20184;-68
2021/01/10 03:18:15;;;;;;;12.70;8.93;;;;;;;-3.36;90.12;97265.84;5120149;27;20313;-68
2021/01/10 03:20:41;;;;;;;15.30;9.10;;;;;;;-3.37;89.20;97260.84;5106536;28;20245;-68
2021/01/10 03:23:06;;;;;;;14.30;9.60;;;;;;;-3.50;90.30;97260.22;5103293;28;20215;-69
2021/01/10 03:25:31;;;;;;;14.60;9.23;;;;;;;-3.51;89.84;97258.63;5117691;27;20199;-68
2021/01/10 03:27:57;;;;;;;14.07;9.17;;;;;;;-3.53;90.06;97252.81;5117312;27;20256;-68
2021/01/10 03:30:22;;;;;;;13.93;9.33;;;;;;;-3.50;89.81;97262.81;5119420;28;20176;-68
2021/01/10 03:32:47;;;;;;;15.00;9.50;;;;;;;-3.44;89.79;97252.03;5106385;28;20280;-68
2021/01/10 03:35:15;;;;;;;13.73;9.13;;;;;;;-3.48;89.70;97254.06;5118870;28;20191;-68
2021/01/10 03:37:41;;;;;;;11.90;9.10;;;;;;;-3.43;90.71;97257.03;5131111;27;20183;-67
2021/01/10 03:40:07;;;;;;;14.77;9.33;;;;;;;-3.44;90.25;97245.16;5115438;27;20191;-69
2021/01/10 03:42:33;;;;;;;12.80;8.83;;;;;;;-3.37;90.09;97251.41;5126250;27;20280;-67
2021/01/10 03:44:58;;;;;;;13.07;9.20;;;;;;;-3.29;89.58;97249.97;5133817;27;20191;-68
2021/01/10 03:47:24;;;;;;;12.83;9.20;;;;;;;-3.07;88.86;97253.16;5133817;27;20188;-69
2021/01/10 03:49:49;;;;;;;12.63;9.17;;;;;;;-3.07;88.45;97247.22;5123321;27;20187;-68
2021/01/10 03:52:15;;;;;;;13.30;8.97;;;;;;;-3.02;88.76;97251.00;5114683;27;20218;-69
2021/01/10 03:54:40;;;;;;;14.87;9.80;;;;;;;-3.05;87.61;97258.13;5126977;27;20468;-68
2021/01/10 03:57:06;;;;;;;14.37;9.93;;;;;;;-3.19;88.60;97258.50;5133084;27;20244;-70
2021/01/10 03:59:31;;;;;;;14.33;9.73;;;;;;;-3.15;89.55;97258.09;5149975;27;20201;-67
2021/01/10 04:01:57;;;;;;;12.77;9.10;;;;;;;-3.12;88.63;97251.91;5134093;27;20187;-67
2021/01/10 04:04:22;;;;;;;15.20;9.83;;;;;;;-3.10;88.94;97250.00;5128409;27;20272;-69
2021/01/10 04:06:48;;;;;;;14.63;9.63;;;;;;;-2.99;88.01;97255.03;5120218;27;20207;-68
2021/01/10 04:09:13;;;;;;;13.83;9.30;;;;;;;-3.04;89.00;97255.44;5114301;27;20207;-67
2021/01/10 04:11:39;;;;;;;13.43;9.17;;;;;;;-2.98;88.73;97254.91;5118862;27;20629;-68
2021/01/10 04:14:04;;;;;;;13.50;9.10;;;;;;;-2.89;87.57;97257.63;5126427;27;20604;-69
2021/01/10 04:16:30;;;;;;;14.13;9.40;;;;;;;-2.84;87.04;97260.63;5127050;27;20568;-67
2021/01/10 04:18:55;;;;;;;12.13;8.30;;;;;;;-3.04;87.39;97252.88;5101594;27;20563;-67
2021/01/10 04:21:20;;;;;;;11.00;7.83;;;;;;;-3.06;87.76;97256.50;5129785;27;20541;-67
2021/01/10 04:23:46;;;;;;;12.07;8.13;;;;;;;-2.90;87.37;97261.97;5120875;27;20213;-68
2021/01/10 04:26:11;;;;;;;13.40;8.47;;;;;;;-3.01;87.31;97254.38;5124711;27;20188;-68
2021/01/10 04:28:37;;;;;;;12.90;8.07;;;;;;;-3.13;86.83;97256.22;5105231;27;20183;-68
2021/01/10 04:31:02;;;;;;;9.70;7.37;;;;;;;-3.26;87.00;97257.38;5116928;27;20188;-68
2021/01/10 04:33:28;;;;;;;9.83;7.03;;;;;;;-2.99;85.67;97250.72;5144252;27;20452;-67
2021/01/10 04:35:54;;;;;;;10.23;7.03;;;;;;;-2.85;84.48;97252.13;5129749;27;20178;-68
2021/01/10 04:38:19;;;;;;;9.57;7.37;;;;;;;-2.99;85.94;97255.84;5114958;27;20630;-68
2021/01/10 04:40:45;;;;;;;12.13;7.50;;;;;;;-2.71;85.27;97261.19;5127583;27;20176;-68
2021/01/10 04:43:11;;;;;;;12.17;7.77;;;;;;;-2.70;85.67;97265.38;5110865;27;20208;-68
2021/01/10 04:45:37;;;;;;;10.77;8.13;;;;;;;-2.53;85.29;97264.72;5131482;27;20536;-68
2021/01/10 04:48:04;;;;;;;10.87;7.37;;;;;;;-2.42;85.02;97263.78;5144811;27;20194;-68
2021/01/10 04:50:33;;;;;;;9.83;7.23;;;;;;;-2.45;85.21;97264.84;5138574;27;20201;-68
2021/01/10 04:53:02;;;;;;;10.03;7.80;;;;;;;-2.37;84.82;97264.19;5123693;27;20188;-68
2021/01/10 04:55:32;;;;;;;9.17;7.33;;;;;;;-2.54;84.03;97263.91;5131732;27;20206;-68
2021/01/10 04:58:05;;;;;;;11.93;7.20;;;;;;;-2.69;83.36;97267.00;5115430;27;20518;-68
2021/01/10 05:00:32;;;;;;;8.70;6.47;;;;;;;-2.62;83.17;97266.31;5116995;27;20180;-69
2021/01/10 05:03:11;;;;;;;9.13;6.90;;;;;;;-2.62;83.12;97262.97;5121642;27;20266;-68
2021/01/10 05:05:40;;;;;;;11.37;7.43;;;;;;;-2.45;82.80;97262.28;5128834;27;20170;-68
2021/01/10 05:08:11;;;;;;;10.03;6.77;;;;;;;-2.73;84.12;97266.44;5130608;27;20193;-69
2021/01/10 05:10:38;;;;;;;10.60;7.30;;;;;;;-2.56;84.49;97264.97;5111713;27;20243;-68
2021/01/10 05:13:04;;;;;;;9.53;6.93;;;;;;;-2.58;84.24;97267.69;5130804;27;20200;-68
2021/01/10 05:15:30;;;;;;;13.07;7.37;;;;;;;-2.34;83.23;97272.41;5129673;27;20503;-68
2021/01/10 05:17:57;;;;;;;9.97;6.80;;;;;;;-2.23;82.47;97263.81;5130109;27;20659;-68
2021/01/10 05:20:28;;;;;;;8.77;6.57;;;;;;;-2.38;82.62;97272.84;5140354;27;20179;-68
2021/01/10 05:22:54;;;;;;;11.13;7.47;;;;;;;-2.61;83.13;97267.13;5133684;27;20206;-68
2021/01/10 05:25:20;;;;;;;9.80;7.23;;;;;;;-2.56;83.52;97265.78;5098166;27;20244;-68
2021/01/10 05:27:47;;;;;;;10.87;6.97;;;;;;;-2.30;82.78;97271.22;5128989;27;20231;-67
2021/01/10 05:30:14;;;;;;;10.40;6.77;;;;;;;-2.29;82.08;97274.63;5136272;27;20178;-68
2021/01/10 05:32:39;;;;;;;11.27;6.83;;;;;;;-2.25;82.27;97275.97;5136349;27;20221;-68
2021/01/10 05:35:05;;;;;;;9.20;6.77;;;;;;;-2.34;82.57;97271.63;5116507;27;20187;-69
2021/01/10 05:37:30;;;;;;;10.57;7.60;;;;;;;-2.26;82.07;97271.75;5128792;27;20186;-68
2021/01/10 05:39:56;;;;;;;10.03;7.23;;;;;;;-2.16;82.33;97270.00;5144005;27;20174;-68
2021/01/10 05:42:29;;;;;;;12.03;7.93;;;;;;;-1.99;81.33;97266.75;5132471;27;20254;-68
2021/01/10 05:44:55;;;;;;;9.80;7.27;;;;;;;-1.93;81.45;97275.66;5113791;27;20172;-69
2021/01/10 05:47:20;;;;;;;9.37;6.60;;;;;;;-2.07;81.32;97282.03;5133910;27;20679;-70
2021/01/10 05:49:54;;;;;;;10.97;7.53;;;;;;;-2.11;82.11;97267.84;5151198;27;20624;-69
2021/01/10 05:52:20;;;;;;;9.83;7.27;;;;;;;-2.24;83.00;97280.97;5134694;27;20187;-67
2021/01/10 05:54:53;;;;;;;9.30;6.90;;;;;;;-2.34;82.76;97285.25;5143727;27;20645;-68
2021/01/10 05:57:26;;;;;;;9.93;7.37;;;;;;;-2.22;82.97;97273.91;5131559;27;20235;-67
2021/01/10 05:59:52;;;;;;;8.40;6.63;;;;;;;-2.36;82.37;97283.78;5136087;27;20210;-67
2021/01/10 06:02:37;;;;;;;9.00;6.73;;;;;;;-2.28;81.23;97273.63;5143981;27;20178;-68
2021/01/10 06:05:18;;;;;;;9.30;6.00;;;;;;;-2.46;78.87;97283.78;5102358;28;20286;-68
2021/01/10 06:07:48;;;;;;;6.77;4.90;;;;;;;-2.43;77.83;97273.25;5112711;27;20184;-67
2021/01/10 06:10:25;;;;;;;6.37;4.50;;;;;;;-2.53;78.23;97277.56;5138327;27;20179;-68
2021/01/10 06:13:05;;;;;;;8.27;4.70;;;;;;;-2.51;79.13;97284.16;5139498;27;20172;-67
2021/01/10 06:15:31;;;;;;;8.50;5.50;;;;;;;-2.31;78.57;97273.94;5133607;27;20186;-67
2021/01/10 06:18:01;;;;;;;8.67;5.97;;;;;;;-2.35;78.96;97275.16;5139977;27;20654;-66
2021/01/10 06:20:31;;;;;;;7.70;5.80;;;;;;;-2.41;79.97;97280.81;5147441;27;20190;-67
2021/01/10 06:23:02;;;;;;;6.20;5.07;;;;;;;-2.31;79.53;97271.34;5145925;27;20633;-66
2021/01/10 06:25:33;;;;;;;7.20;5.20;;;;;;;-2.06;78.73;97272.59;5121396;27;20494;-66
2021/01/10 06:28:19;;;;;;;7.80;6.13;;;;;;;-1.97;78.54;97277.72;5144238;27;20245;-66
2021/01/10 06:30:57;;;;;;;7.70;5.60;;;;;;;-1.86;77.86;97269.84;5121423;27;20270;-66
2021/01/10 06:33:33;;;;;;;6.57;5.10;;;;;;;-2.04;77.41;97279.19;5098378;28;20712;-68
2021/01/10 06:36:06;;;;;;;7.60;5.97;;;;;;;-1.98;78.13;97277.84;5114610;27;20174;-66
2021/01/10 06:38:37;;;;;;;8.23;6.07;;;;;;;-1.90;77.82;97280.53;5111200;28;20187;-66
2021/01/10 06:41:24;;;;;;;8.50;5.47;;;;;;;-1.85;77.42;97274.06;5120384;27;20638;-65
2021/01/10 06:43:58;;;;;;;8.10;5.53;;;;;;;-2.01;79.09;97271.22;5105634;27;20292;-68
2021/01/10 06:46:24;;;;;;;7.07;5.20;;;;;;;-1.81;77.83;97274.56;5109095;28;20227;-66
2021/01/10 06:48:51;;;;;;;8.47;6.07;;;;;;;-1.83;78.92;97268.75;5109442;28;20704;-65
2021/01/10 06:51:17;;;;;;;7.80;6.17;;;;;;;-1.69;79.19;97273.47;5123273;27;20953;-66
2021/01/10 06:53:43;;;;;;;7.40;5.77;;;;;;;-1.77;78.50;97271.59;5107739;27;20202;-65
2021/01/10 06:56:09;;;;;;;7.93;5.97;;;;;;;-1.73;78.36;97267.78;5133262;27;20197;-68
2021/01/10 06:58:35;;;;;;;7.47;5.80;;;;;;;-1.73;78.10;97269.56;5136465;27;20188;-68
2021/01/10 07:01:00;;;;;;;8.47;6.27;;;;;;;-1.72;78.63;97269.41;5107772;27;20184;-67
2021/01/10 07:03:26;;;;;;;9.93;6.53;;;;;;;-1.84;79.30;97265.38;5119691;28;20190;-67
2021/01/10 07:06:08;;;;;;;8.70;5.97;;;;;;;-1.70;78.73;97269.28;5094931;28;20183;-67
2021/01/10 07:08:55;;;;;;;10.10;6.23;;;;;;;-1.85;80.40;97276.63;5140144;27;20258;-68
2021/01/10 07:11:23;;;;;;;10.53;7.07;;;;;;;-2.07;81.89;97268.41;5114531;27;20187;-73
2021/01/10 07:13:50;;;;;;;8.37;6.77;;;;;;;-2.30;82.33;97278.13;5145452;27;20239;-74
2021/01/10 07:16:17;;;;;;;9.33;6.77;;;;;;;-2.56;83.08;97277.81;5147097;27;20277;-74
2021/01/10 07:18:54;;;;;;;9.43;6.70;;;;;;;-2.53;83.38;97280.94;5138552;27;20175;-69
2021/01/10 07:21:32;;;;;;;9.53;7.20;;;;;;;-2.15;81.73;97281.91;5134263;27;20193;-69
2021/01/10 07:24:14;;;;;;;10.37;7.27;;;;;;;-2.00;80.62;97284.84;5125023;27;20192;-69
2021/01/10 07:26:47;;;;;;;12.10;8.37;;;;;;;-1.99;80.89;97287.28;5103391;27;20203;-69
2021/01/10 07:29:44;;;;;;;11.67;7.73;;;;;;;-1.89;80.39;97288.09;5147435;27;20213;-68
2021/01/10 07:32:19;;;;;;;9.93;7.10;;;;;;;-2.01;81.05;97293.53;5064516;28;20718;-73
2021/01/10 07:34:44;;;;;;;8.57;6.53;;;;;;;-2.10;81.67;97287.44;5079225;28;20662;-70
2021/01/10 07:37:26;;;;;;;11.20;7.43;;;;;;;-2.02;81.61;97287.59;5085847;28;20189;-70
2021/01/10 07:39:55;;;;;;;12.93;8.10;;;;;;;-2.03;82.12;97293.66;5111192;28;20638;-69
2021/01/10 07:42:25;;;;;;;12.03;7.87;;;;;;;-2.25;83.57;97293.91;5077307;28;20643;-71
2021/01/10 07:44:53;;;;;;;9.83;7.73;;;;;;;-2.15;83.51;97295.53;5094747;28;20238;-70
2021/01/10 07:47:42;;;;;;;10.97;7.83;;;;;;;-1.84;82.95;97292.84;5093547;28;20197;-71
2021/01/10 07:50:16;;;;;;;12.00;8.53;;;;;;;-2.02;82.96;97292.72;5090359;28;20215;-72
2021/01/10 07:52:42;;;;;;;11.40;8.27;;;;;;;-1.86;82.69;97297.28;5080446;28;20186;-72
2021/01/10 07:55:19;;;;;;;11.47;7.90;;;;;;;-2.01;82.46;97301.22;5112971;28;20184;-70
2021/01/10 07:57:53;;;;;;;11.07;7.67;;;;;;;-2.10;82.77;97302.84;5084411;28;20177;-72
2021/01/10 08:00:23;;;;;;;11.70;9.83;;;;;;;-1.72;82.45;97304.56;5109016;28;20687;-71
2021/01/10 08:02:57;;;;;;;13.20;10.17;;;;;;;-1.66;81.71;97301.44;5108266;28;20187;-70
2021/01/10 08:05:25;;;;;;;12.50;8.43;;;;;;;-1.49;81.31;97298.19;5093748;28;20173;-70
2021/01/10 08:07:58;;;;;;;11.60;8.17;;;;;;;-1.46;80.41;97307.38;5094645;28;20721;-70
2021/01/10 08:10:27;;;;;;;17.07;9.13;;;;;;;-1.61;81.33;97303.59;5094975;28;20175;-70
2021/01/10 08:12:52;;;;;;;10.03;7.40;;;;;;;-1.60;80.82;97315.50;5113935;28;20602;-69
2021/01/10 08:15:18;;;;;;;11.47;8.13;;;;;;;-1.60;81.53;97308.63;5091174;28;20189;-69
2021/01/10 08:17:44;;;;;;;10.70;7.70;;;;;;;-1.73;81.55;97308.91;5088235;28;20188;-69
2021/01/10 08:20:11;;;;;;;10.83;7.23;;;;;;;-1.63;81.28;97303.75;5093961;28;20180;-69
2021/01/10 08:22:37;;;;;;;13.43;8.30;;;;;;;-1.71;82.17;97306.19;5106664;28;20188;-70
2021/01/10 08:25:05;;;;;;;10.77;7.93;;;;;;;-1.62;82.32;97304.56;5093636;28;20663;-70
2021/01/10 08:27:31;;;;;;;10.17;7.33;;;;;;;-1.61;81.74;97303.59;5093050;28;20273;-70
2021/01/10 08:29:57;;;;;;;11.30;8.33;;;;;;;-1.83;82.33;97310.66;5097494;28;20275;-73
2021/01/10 08:32:23;;;;;;;10.77;7.77;;;;;;;-1.97;82.76;97318.78;5108427;28;20413;-73
2021/01/10 08:34:54;;;;;;;10.90;7.77;;;;;;;-1.90;83.13;97322.47;5113636;28;20661;-74
2021/01/10 08:37:23;;;;;;;11.23;7.77;;;;;;;-1.76;82.86;97310.94;5111141;28;20184;-70
2021/01/10 08:40:03;;;;;;;10.00;7.43;;;;;;;-1.59;82.08;97317.94;5095857;28;20185;-69
2021/01/10 08:42:33;;;;;;;11.13;7.97;;;;;;;-1.51;81.16;97323.22;5091520;28;20183;-70
2021/01/10 08:45:18;;;;;;;11.10;8.57;;;;;;;-1.25;80.95;97313.13;5100047;28;20639;-70
2021/01/10 08:47:44;;;;;;;10.07;7.57;;;;;;;-1.40;81.07;97317.94;5079713;28;20278;-70
2021/01/10 08:50:12;;;;;;;12.77;8.60;;;;;;;-1.33;81.33;97315.59;5113366;28;20210;-75
2021/01/10 08:52:57;;;;;;;10.70;8.17;;;;;;;-1.16;80.59;97308.91;5102629;27;20215;-73
2021/01/10 08:55:36;;;;;;;12.20;8.87;;;;;;;-1.19;81.42;97311.78;5098879;28;20191;-69
2021/01/10 08:58:03;;;;;;;12.60;8.07;;;;;;;-1.16;80.74;97306.34;5099789;28;20693;-73
2021/01/10 09:00:29;;;;;;;11.67;7.77;;;;;;;-1.51;80.98;97307.81;5102974;28;20185;-71
2021/01/10 09:02:55;;;;;;;11.67;8.00;;;;;;;-1.61;81.99;97308.75;5103678;28;20203;-69
2021/01/10 09:05:25;;;;;;;10.70;8.00;;;;;;;-1.45;81.73;97317.50;5078142;28;20192;-68
2021/01/10 09:08:01;;;;;;;10.63;7.70;;;;;;;-1.51;82.60;97314.69;5103969;28;20204;-68
2021/01/10 09:10:30;;;;;;;11.23;7.53;;;;;;;-1.20;80.64;97308.38;5080022;28;20178;-67
2021/01/10 09:13:04;;;;;;;12.70;8.37;;;;;;;-1.08;80.78;97309.03;5093745;28;20276;-69
2021/01/10 09:15:34;;;;;;;10.97;7.57;;;;;;;-1.08;79.98;97314.16;5093822;28;20172;-68
2021/01/10 09:18:20;;;;;;;9.77;7.47;;;;;;;-1.18;79.98;97309.06;5102681;28;20661;-67
2021/01/10 09:21:12;;;;;;;9.07;7.47;;;;;;;-1.03;79.49;97317.94;5112600;28;20164;-67
2021/01/10 09:23:38;;;;;;;12.53;8.57;;;;;;;-1.09;79.60;97312.53;5095472;28;20184;-67
2021/01/10 09:26:03;;;;;;;11.43;8.23;;;;;;;-1.00;79.57;97316.84;5105245;28;20241;-69
2021/01/10 09:28:32;;;;;;;11.40;8.00;;;;;;;-0.82;78.96;97316.91;5099229;28;20232;-68
2021/01/10 09:30:58;;;;;;;12.73;8.47;;;;;;;-1.16;79.93;97314.84;5097525;28;20184;-67
2021/01/10 09:33:26;;;;;;;11.33;8.13;;;;;;;-1.42;80.86;97322.38;5106312;28;20686;-68
2021/01/10 09:35:52;;;;;;;7.80;6.40;;;;;;;-1.27;79.72;97321.00;5101404;28;20191;-68
2021/01/10 09:38:25;;;;;;;10.27;7.30;;;;;;;-1.57;80.91;97315.25;5104742;28;20190;-68
2021/01/10 09:41:13;;;;;;;11.47;8.37;;;;;;;-1.63;82.07;97316.63;5095162;28;20812;-68
2021/01/10 09:43:51;;;;;;;9.47;7.10;;;;;;;-1.37;81.32;97327.91;5083071;28;20204;-68
2021/01/10 09:46:34;;;;;;;9.37;7.10;;;;;;;-1.59;81.43;97324.84;5083578;28;20183;-68
2021/01/10 09:49:07;;;;;;;9.93;6.93;;;;;;;-1.58;80.58;97322.16;5092097;28;20177;-65
2021/01/10 09:51:39;;;;;;;8.97;7.00;;;;;;;-1.60;81.01;97313.75;5105812;28;20176;-69
2021/01/10 09:54:16;;;;;;;9.30;6.83;;;;;;;-1.59;80.45;97317.13;5083227;28;20187;-69
2021/01/10 09:56:43;;;;;;;9.30;7.03;;;;;;;-1.41;79.80;97315.50;5101470;28;20192;-70
2021/01/10 09:59:41;;;;;;;11.17;7.77;;;;;;;-1.42;80.36;97312.09;5104664;28;20232;-67
2021/01/10 10:02:17;;;;;;;8.40;6.40;;;;;;;-1.49;79.74;97307.66;5091428;28;20266;-69
2021/01/10 10:04:45;;;;;;;8.57;6.43;;;;;;;-1.57;80.46;97312.69;5094462;28;20176;-68
2021/01/10 10:07:11;;;;;;;8.70;6.40;;;;;;;-1.55;79.90;97310.75;5098187;28;20200;-66
2021/01/10 10:10:07;;;;;;;7.23;5.83;;;;;;;-1.44;78.88;97308.84;5097141;28;20188;-71
2021/01/10 10:12:33;;;;;;;7.90;6.27;;;;;;;-1.26;78.38;97301.22;5094298;28;20199;-71
2021/01/10 10:15:08;;;;;;;6.53;5.43;;;;;;;-1.24;78.69;97301.91;5086416;28;20182;-66
2021/01/10 10:17:38;;;;;;;7.70;5.90;;;;;;;-1.19;77.92;97304.06;5089753;28;20188;-66
2021/01/10 10:20:06;;;;;;;8.97;6.67;;;;;;;-1.10;77.23;97298.88;5086046;28;20192;-64
2021/01/10 10:22:34;;;;;;;7.23;5.90;;;;;;;-1.03;78.05;97304.25;5102573;28;20180;-62
2021/01/10 10:25:02;;;;;;;7.93;5.53;;;;;;;-1.11;77.40;97301.56;5102325;28;20228;-65
2021/01/10 10:27:29;;;;;;;7.67;6.10;;;;;;;-0.98;76.65;97299.50;5095620;28;20230;-67
2021/01/10 10:29:55;;;;;;;8.37;6.07;;;;;;;-0.93;76.71;97298.13;5107751;28;20614;-65
2021/01/10 10:32:21;;;;;;;9.03;6.27;;;;;;;-0.82;77.18;97296.31;5095932;28;20228;-64
2021/01/10 10:34:47;;;;;;;9.43;7.13;;;;;;;-0.67;76.92;97293.09;5119463;27;20188;-66
2021/01/10 10:37:14;;;;;;;6.87;5.97;;;;;;;-0.58;76.54;97297.41;5106485;28;20548;-64
2021/01/10 10:39:39;;;;;;;7.97;6.07;;;;;;;-0.63;75.88;97288.50;5125129;27;20181;-74
2021/01/10 10:42:09;;;;;;;7.97;5.73;;;;;;;-0.62;76.65;97279.84;5109715;27;20192;-72
2021/01/10 10:44:34;;;;;;;9.70;6.63;;;;;;;-0.34;77.29;97278.84;5102167;28;20673;-67
2021/01/10 10:47:00;;;;;;;8.43;6.50;;;;;;;-0.10;74.84;97284.19;5101810;28;20665;-69
2021/01/10 10:49:25;;;;;;;6.90;5.60;;;;;;;0.26;73.95;97285.00;5100627;28;20697;-67
2021/01/10 10:51:51;;;;;;;8.00;5.83;;;;;;;0.39;73.71;97280.22;5126520;28;20653;-67
2021/01/10 10:54:16;;;;;;;7.57;5.30;;;;;;;0.52;71.98;97290.16;5118173;28;20180;-68
2021/01/10 10:56:42;;;;;;;6.57;4.90;;;;;;;0.53;70.25;97285.81;5119491;28;20184;-68
2021/01/10 10:59:08;;;;;;;6.60;5.53;;;;;;;0.58;72.12;97276.66;5104121;28;20267;-68
2021/01/10 11:01:52;;;;;;;4.90;4.00;;;;;;;0.48;69.72;97281.09;5123381;28;20179;-67
2021/01/10 11:04:17;;;;;;;7.70;4.70;;;;;;;0.70;70.52;97275.44;5104464;28;20215;-67
2021/01/10 11:06:43;;;;;;;7.47;5.53;;;;;;;0.70;71.23;97266.91;5124028;28;20199;-68
2021/01/10 11:09:10;;;;;;;6.13;4.97;;;;;;;0.49;70.42;97276.75;5123157;27;20660;-67
2021/01/10 11:11:43;;;;;;;5.87;4.73;;;;;;;0.46;70.17;97269.31;5094778;28;20199;-68
2021/01/10 11:14:10;;;;;;;6.90;5.17;;;;;;;0.25;72.26;97270.47;5113172;28;20211;-68
2021/01/10 11:16:37;;;;;;;6.13;4.57;;;;;;;0.13;72.47;97263.13;5120899;28;20191;-68
2021/01/10 11:19:07;;;;;;;7.17;5.53;;;;;;;0.08;72.61;97262.75;5121635;27;20588;-68
2021/01/10 11:21:35;;;;;;;7.40;5.63;;;;;;;0.07;73.32;97256.81;5104099;28;20190;-68
2021/01/10 11:24:01;;;;;;;7.60;5.40;;;;;;;0.06;73.75;97255.19;5123880;27;20208;-68
2021/01/10 11:26:27;;;;;;;7.50;5.53;;;;;;;0.01;73.76;97257.41;5122281;27;20247;-68
2021/01/10 11:28:53;;;;;;;8.87;5.90;;;;;;;0.03;75.27;97252.09;5107829;28;20180;-68
2021/01/10 11:31:20;;;;;;;7.50;6.07;;;;;;;0.02;74.17;97248.72;5121305;27;20196;-68
2021/01/10 11:33:46;;;;;;;7.63;6.37;;;;;;;0.10;73.50;97250.56;5100365;28;20225;-68
2021/01/10 11:36:12;;;;;;;9.27;6.00;;;;;;;0.13;74.67;97245.09;5114803;28;20286;-68